Hovedside
METAR-TAF:

METAR-TAF

Lufthavner :

Leknes lufthavn

Leknes, Norge

breddegrad: 68-09N, lengdegrad: 013-37E, høyde over havet: 2 m

Gjeldene værobservasjon

Denne rapporten ble laget for 1 time og 4 minutter siden, klokken 03:50 UTC
Vind 5 kt fra Øst
Temperatur -1°C
Luftfuktighet 80%
Trykk 996 hPa
Sikt 10 km eller mer
Få skyer i en høyde av 3000 ft

METAR: ENLK 290350Z 10005KT 9999 FEW030 M01/M04 Q0996

Tid: 05:54 (04:54 UTC)


TAF: fraværende

Værobservasjoner og værvarsel for over 4000 flyplasser (METAR- og TAF-rapporter).

Tilgjengelige stasjoner er representert av de røde og gule prikkene på kartet.

Hold musepekeren over prikken for å se navnet på stasjonen.

Klikk så for å se værobservasjoner og -varsler.

For å forandre kartet kan du klikke på den grønne knappen med svart kryss for å zoome inn, på den grønne knappen med strek for å zoome ut, eller på de grønne pilene for å se tilstøtende kart.


METAR-TAF: